Weser, Texas
Current Conditions -  °F | °C
As of 10:15 AM on Wednesday 26 Nov 2014 (Local Time) from KBEA Reporting Station
Clear Clear  
Wind Chill: 18°   Ceiling: Unl
Heat Index: 18°   Visibility: 10mi
Dew Point:   Wind: 15mph
Humidity: 36%   Direction: 220°SW
Pressure: 30.28"   Gusts: NA
Location:  28.6563°N, 97.4287°W
Report Text: KBEA 261615Z AUTO 22013KT 10SM CLR 18/02 A3028 RMK AO2 T01750021
Loading
Personal Weather Stations






























Interactive Weather Map New forecast layout! Learn more

10-Day Weather Forecast

Advertisements
Track Severe Weather on mobile